Airfield :
LOGIN :

Register | Disclaimer

   EN    FR    IT 

 










Legend :    VFR   Marginal VFR   IFR   Intensive IFR   Very Intensive IFR
Visi :
Ceiling :
>= 8 km
>= 3000ft
5 to 8 km
1000 to 3000 ft
1500m to 5 km
500 to 1000 ft
800 to 1500m
200 to 500 ft
< 800m
< 200 ft
Symbols :   Thunderstorms  Fog  Heavy snow  Heavy precipitations  Wind > 20 kt
SIGMETs :     Misc.  Thunderstorms  Icing  Turbulence  Mountain Waves  Volcanic Ashes






- Airport Elevation : 295 ft
- IATA code : ORN


DAOO - Es senia - Oran

CURRENT METAR :
  • 141230Z 35009KT CAVOK 28/19 Q1012

EXPIRED METARs :
  • 141200Z 34009KT CAVOK 27/19 Q1013
  • 141130Z 34009KT 300V010 CAVOK 27/18 Q1013
  • 141100Z 34009KT CAVOK 28/18 Q1013
  • 141030Z 33008KT CAVOK 27/18 Q1014
  • 141000Z VRB03KT CAVOK 28/17 Q1014
  • 140930Z VRB03KT CAVOK 28/15 Q1014
  • 140900Z 16004KT CAVOK 27/15 Q1014
  • 140830Z 18005KT 140V230 CAVOK 26/15 Q1014

TAF TAF DAOO
Valid from the 14 at 12:00 until the 15 at 12:00 UTC


141100Z 1412/1512 18006KT CAVOK
BECMG 1412/1415 35012KT
BECMG 1418/1420 25018KT
BECMG 1500/1503 VRB02KT



MET'MAP, your aeronautical weather chart ! - Copyright ORBIFLY December 2007 - Disclaimer

ORBIFLY MET'MAP TEAM :

Programming & Development : Alexandra Zaïnal
Original concept : Baudouin d'Aumeries
Technical & hardware support : Manuel Goepfert
Assistance : Marc-Olivier Méhu




SOURCES & CREDITS :

   NOAA